Time;durP1;ratioP1;P1;durP2;ratioP2;P2;SDS_P1;SDS_P2;PMS_P1;PMS_P2;Temp;Humidity;BMP_temperature;BMP_pressure;BME280_temperature;BME280_humidity;BME280_pressure;Samples;Min_cycle;Max_cycle;Signal;HPM_P1;HPM_P2
2024/02/16 00:00:29;;;;;;;15.85;7.82;;;;;;;10.74;100.00;100199.13;5067007;28;20048;-72
2024/02/16 00:02:59;;;;;;;13.20;7.88;;;;;;;10.74;100.00;100193.84;5084430;28;20040;-72
2024/02/16 00:05:27;;;;;;;11.80;7.60;;;;;;;10.73;100.00;100186.81;5085640;28;20052;-72
2024/02/16 00:07:56;;;;;;;13.02;7.63;;;;;;;10.62;100.00;100175.91;5082165;28;20058;-73
2024/02/16 00:10:25;;;;;;;11.98;7.78;;;;;;;10.70;100.00;100188.78;5093272;28;20055;-72
2024/02/16 00:12:53;;;;;;;12.18;7.85;;;;;;;10.66;100.00;100182.78;5088418;28;20047;-72
2024/02/16 00:15:24;;;;;;;14.40;8.45;;;;;;;10.70;100.00;100189.66;5082273;28;20055;-71
2024/02/16 00:17:52;;;;;;;13.75;8.45;;;;;;;10.62;100.00;100186.50;5078485;28;20048;-71
2024/02/16 00:20:25;;;;;;;14.55;8.10;;;;;;;10.66;100.00;100189.88;5081094;28;20052;-73
2024/02/16 00:22:56;;;;;;;11.20;7.32;;;;;;;10.66;100.00;100187.22;5079632;28;20035;-72
2024/02/16 00:25:25;;;;;;;12.45;7.45;;;;;;;10.63;100.00;100182.06;5080278;28;20068;-72
2024/02/16 00:27:56;;;;;;;12.43;7.55;;;;;;;10.59;100.00;100181.38;5078745;28;20565;-71
2024/02/16 00:30:25;;;;;;;12.13;6.85;;;;;;;10.54;100.00;100178.97;5079838;28;20079;-73
2024/02/16 00:32:54;;;;;;;13.95;7.18;;;;;;;10.53;100.00;100179.03;5076822;28;20061;-73
2024/02/16 00:35:27;;;;;;;11.88;6.88;;;;;;;10.55;100.00;100177.16;5075888;28;20065;-73
2024/02/16 00:37:58;;;;;;;11.98;7.22;;;;;;;10.57;100.00;100188.53;5092831;28;20598;-72
2024/02/16 00:40:28;;;;;;;12.55;7.38;;;;;;;10.55;100.00;100183.31;5067164;28;20052;-71
2024/02/16 00:43:01;;;;;;;15.65;7.68;;;;;;;10.53;100.00;100174.59;5073143;28;20055;-73
2024/02/16 00:45:30;;;;;;;14.50;7.50;;;;;;;10.52;100.00;100172.88;5068990;28;20105;-70
2024/02/16 00:48:01;;;;;;;16.83;7.55;;;;;;;10.47;100.00;100174.91;5062301;28;20041;-71
2024/02/16 00:50:31;;;;;;;12.32;7.47;;;;;;;10.44;100.00;100168.91;5082395;28;20588;-72
2024/02/16 00:53:00;;;;;;;12.23;7.68;;;;;;;10.38;100.00;100169.22;5078242;28;20048;-72
2024/02/16 00:55:30;;;;;;;13.15;7.45;;;;;;;10.39;100.00;100179.72;5076463;28;20044;-72
2024/02/16 00:57:59;;;;;;;15.00;8.10;;;;;;;10.39;100.00;100176.22;5076223;28;20056;-70
2024/02/16 01:00:27;;;;;;;14.23;8.43;;;;;;;10.37;100.00;100156.91;5063142;28;20049;-71
2024/02/16 01:02:57;;;;;;;13.88;7.57;;;;;;;10.42;100.00;100154.88;5080142;28;20036;-72
2024/02/16 01:05:28;;;;;;;14.73;7.95;;;;;;;10.35;100.00;100154.34;5059569;28;20070;-70
2024/02/16 01:08:00;;;;;;;13.55;7.40;;;;;;;10.32;100.00;100172.16;5071980;28;20403;-72
2024/02/16 01:10:28;;;;;;;10.68;7.40;;;;;;;10.25;100.00;100170.72;5075056;28;20039;-73
2024/02/16 01:12:57;;;;;;;12.48;7.32;;;;;;;10.18;100.00;100168.41;5074516;28;20461;-72
2024/02/16 01:15:25;;;;;;;13.57;7.03;;;;;;;10.15;100.00;100171.16;5055771;28;20120;-73
2024/02/16 01:17:56;;;;;;;10.15;6.55;;;;;;;10.15;100.00;100167.66;5077690;28;20469;-71
2024/02/16 01:20:24;;;;;;;12.98;7.68;;;;;;;10.16;100.00;100158.78;5080742;28;20793;-73
2024/02/16 01:22:52;;;;;;;13.15;6.55;;;;;;;10.18;100.00;100163.13;5077797;28;20047;-72
2024/02/16 01:25:22;;;;;;;10.20;6.68;;;;;;;10.05;100.00;100151.38;5077111;28;20059;-72
2024/02/16 01:27:56;;;;;;;11.35;6.20;;;;;;;10.13;100.00;100161.59;5072210;28;20040;-72
2024/02/16 01:30:24;;;;;;;12.00;6.60;;;;;;;10.07;100.00;100169.84;5076271;28;20124;-72
2024/02/16 01:32:55;;;;;;;12.35;6.35;;;;;;;10.10;100.00;100174.94;5074978;28;20044;-72
2024/02/16 01:35:23;;;;;;;10.32;6.13;;;;;;;10.02;100.00;100167.41;5057656;28;20055;-72
2024/02/16 01:37:53;;;;;;;13.27;6.85;;;;;;;10.08;100.00;100172.38;5077472;28;20451;-72
2024/02/16 01:40:25;;;;;;;9.38;6.00;;;;;;;9.99;100.00;100141.09;5078467;28;20036;-72
2024/02/16 01:42:55;;;;;;;10.43;6.18;;;;;;;10.13;100.00;100165.09;5079966;28;20045;-72
2024/02/16 01:45:23;;;;;;;13.95;6.65;;;;;;;9.98;100.00;100135.88;5079194;28;20456;-72
2024/02/16 01:47:53;;;;;;;11.10;6.60;;;;;;;10.14;100.00;100161.50;5076699;28;20106;-73
2024/02/16 01:50:29;;;;;;;11.57;5.82;;;;;;;10.14;100.00;100165.94;5074511;28;20141;-72
2024/02/16 01:52:57;;;;;;;11.57;5.47;;;;;;;10.13;100.00;100165.09;5076542;28;20044;-72
2024/02/16 01:55:27;;;;;;;10.27;5.90;;;;;;;10.11;100.00;100166.94;5075741;28;20050;-72
2024/02/16 01:57:58;;;;;;;9.10;5.60;;;;;;;10.14;100.00;100179.16;5079568;28;20040;-73
2024/02/16 02:00:28;;;;;;;11.32;6.18;;;;;;;10.09;100.00;100163.50;5078442;28;20461;-72
2024/02/16 02:02:58;;;;;;;8.93;5.68;;;;;;;10.09;100.00;100165.31;5076319;28;20054;-72
2024/02/16 02:05:27;;;;;;;9.85;5.15;;;;;;;10.08;100.00;100164.44;5058217;28;20051;-73
2024/02/16 02:07:57;;;;;;;10.57;6.25;;;;;;;10.11;100.00;100169.59;5067294;28;20056;-71
2024/02/16 02:10:28;;;;;;;12.48;5.68;;;;;;;10.05;100.00;100172.56;5063563;28;20052;-72
2024/02/16 02:12:57;;;;;;;13.32;6.20;;;;;;;10.08;100.00;100174.16;5079308;28;20048;-71
2024/02/16 02:15:28;;;;;;;9.65;6.43;;;;;;;10.00;100.00;100171.06;5072804;28;20102;-71
2024/02/16 02:17:59;;;;;;;9.15;5.25;;;;;;;10.00;100.00;100163.97;5079382;28;20497;-71
2024/02/16 02:20:31;;;;;;;12.10;6.28;;;;;;;10.03;100.00;100177.06;5079690;28;20105;-70
2024/02/16 02:23:03;;;;;;;10.88;6.28;;;;;;;10.00;100.00;100168.41;5078189;28;20127;-71
2024/02/16 02:25:33;;;;;;;10.73;6.25;;;;;;;9.91;100.00;100150.34;5060432;28;20036;-71
2024/02/16 02:28:03;;;;;;;11.73;5.90;;;;;;;9.93;100.00;100164.31;5076777;28;20512;-71
2024/02/16 02:30:31;;;;;;;12.25;6.30;;;;;;;9.93;100.00;100159.91;5078445;28;20052;-70
2024/02/16 02:33:02;;;;;;;9.95;5.95;;;;;;;9.88;100.00;100154.00;5076413;28;20123;-72
2024/02/16 02:35:31;;;;;;;12.68;6.32;;;;;;;9.83;100.00;100148.91;5072400;28;20051;-72
2024/02/16 02:38:04;;;;;;;8.65;5.82;;;;;;;9.88;100.00;100142.56;5085242;28;20074;-70
2024/02/16 02:40:34;;;;;;;12.23;5.95;;;;;;;9.91;100.00;100147.69;5078925;28;20385;-71
2024/02/16 02:43:02;;;;;;;9.32;5.18;;;;;;;9.96;100.00;100148.31;5079387;28;20097;-71
2024/02/16 02:45:30;;;;;;;10.40;5.47;;;;;;;9.88;100.00;100156.63;5076640;28;20052;-70
2024/02/16 02:47:58;;;;;;;9.35;5.15;;;;;;;9.76;100.00;100143.97;5088528;28;20036;-71
2024/02/16 02:50:27;;;;;;;8.32;5.43;;;;;;;9.71;100.00;100146.00;5081312;28;20105;-71
2024/02/16 02:52:59;;;;;;;9.15;5.00;;;;;;;9.69;100.00;100156.66;5082357;28;20056;-71
2024/02/16 02:55:29;;;;;;;8.82;5.55;;;;;;;9.63;100.00;100151.63;5075871;28;20033;-71
2024/02/16 02:57:58;;;;;;;6.97;4.80;;;;;;;9.64;100.00;100149.84;5077352;28;20037;-73
2024/02/16 03:00:27;;;;;;;10.43;5.43;;;;;;;9.66;100.00;100145.34;5068596;28;20722;-73
2024/02/16 03:02:55;;;;;;;7.80;5.03;;;;;;;9.63;100.00;100138.41;5087741;28;20409;-70
2024/02/16 03:05:23;;;;;;;7.53;5.18;;;;;;;9.66;100.00;100148.00;5077445;28;20071;-72
2024/02/16 03:07:52;;;;;;;7.10;5.18;;;;;;;9.64;100.00;100139.28;5084373;28;20040;-72
2024/02/16 03:10:23;;;;;;;12.60;5.67;;;;;;;9.68;100.00;100143.50;5076298;28;20512;-71
2024/02/16 03:12:54;;;;;;;7.55;5.00;;;;;;;9.68;100.00;100154.94;5073135;28;20071;-72
2024/02/16 03:15:22;;;;;;;;;;;;;;;9.73;100.00;100157.38;5079603;28;20051;-71
2024/02/16 03:17:55;;;;;;;9.48;5.35;;;;;;;9.73;100.00;100155.56;5077328;28;19926;-71
2024/02/16 03:20:23;;;;;;;9.98;5.70;;;;;;;9.73;100.00;100155.56;5068978;28;20040;-72
2024/02/16 03:22:53;;;;;;;7.55;4.70;;;;;;;9.67;100.00;100144.41;5078975;28;21604;-72
2024/02/16 03:25:21;;;;;;;7.57;4.90;;;;;;;9.75;100.00;100158.16;5080203;28;20052;-71
2024/02/16 03:27:50;;;;;;;8.00;5.25;;;;;;;9.74;100.00;100153.78;5081772;28;20135;-73
2024/02/16 03:30:22;;;;;;;8.75;4.88;;;;;;;9.74;100.00;100161.72;5069136;28;20105;-73
2024/02/16 03:32:50;;;;;;;6.47;4.82;;;;;;;9.73;100.00;100162.66;5080505;28;20036;-72
2024/02/16 03:35:20;;;;;;;7.38;4.78;;;;;;;9.68;100.00;100154.06;5076989;28;20033;-72
2024/02/16 03:37:48;;;;;;;9.02;4.88;;;;;;;9.69;100.00;100153.13;5067269;28;20058;-72
2024/02/16 03:40:16;;;;;;;9.80;5.03;;;;;;;9.70;100.00;100152.22;5079083;28;20600;-72
2024/02/16 03:42:45;;;;;;;9.90;4.63;;;;;;;9.73;100.00;100152.94;5063128;28;20058;-72
2024/02/16 03:45:13;;;;;;;7.97;5.20;;;;;;;9.62;100.00;100131.41;5075557;28;20048;-72
2024/02/16 03:47:45;;;;;;;7.97;4.80;;;;;;;9.73;100.00;100155.56;5087419;28;20052;-72
2024/02/16 03:50:14;;;;;;;8.53;4.80;;;;;;;9.77;100.00;100162.41;5086411;28;20133;-72
2024/02/16 03:52:44;;;;;;;;;;;;;;;9.77;100.00;100150.97;5089539;28;20532;-71
2024/02/16 03:55:11;;;;;;;12.52;4.78;;;;;;;9.77;100.00;100151.84;5085123;28;20260;-72
2024/02/16 03:57:41;;;;;;;9.85;4.93;;;;;;;9.79;100.00;100165.00;5081143;28;20043;-72
2024/02/16 04:00:12;;;;;;;8.75;4.35;;;;;;;9.81;100.00;100160.50;5076981;28;20072;-72
2024/02/16 04:02:41;;;;;;;6.63;4.47;;;;;;;9.81;100.00;100153.41;5080841;28;20068;-72
2024/02/16 04:05:11;;;;;;;8.05;4.78;;;;;;;9.84;100.00;100165.63;5085913;28;20071;-72
2024/02/16 04:07:44;;;;;;;7.22;4.50;;;;;;;9.86;100.00;100166.44;5082241;28;20071;-72
2024/02/16 04:10:16;;;;;;;8.73;4.80;;;;;;;9.78;100.00;100153.56;5084278;28;20064;-71
2024/02/16 04:12:45;;;;;;;6.43;4.10;;;;;;;9.90;100.00;100167.16;5085740;28;20045;-71
2024/02/16 04:15:15;;;;;;;10.25;4.90;;;;;;;9.91;100.00;100161.78;5064919;28;20128;-73
2024/02/16 04:17:44;;;;;;;7.30;4.53;;;;;;;9.87;100.00;100160.22;5068696;28;20376;-72
2024/02/16 04:20:15;;;;;;;6.30;4.65;;;;;;;9.91;100.00;100164.44;5074944;28;20040;-72
2024/02/16 04:22:44;;;;;;;9.32;4.97;;;;;;;9.90;100.00;100181.22;5041827;28;20049;-72
2024/02/16 04:25:12;;;;;;;9.45;5.10;;;;;;;9.80;100.00;100169.34;5038057;28;20096;-71
2024/02/16 04:27:40;;;;;;;7.13;5.13;;;;;;;9.83;100.00;100171.84;5036153;28;20049;-72
2024/02/16 04:30:11;;;;;;;7.60;4.50;;;;;;;9.84;100.00;100177.06;5021592;28;20098;-72
2024/02/16 04:32:39;;;;;;;9.43;4.88;;;;;;;9.83;100.00;100182.44;5038305;28;20037;-72
2024/02/16 04:35:11;;;;;;;6.90;4.57;;;;;;;9.79;100.00;100184.34;5039674;28;20040;-72
2024/02/16 04:37:42;;;;;;;7.63;4.90;;;;;;;9.74;100.00;100177.59;5038687;28;20052;-71
2024/02/16 04:40:12;;;;;;;5.88;4.78;;;;;;;9.74;100.00;100182.88;5043005;28;20134;-72
2024/02/16 04:42:41;;;;;;;9.90;5.10;;;;;;;9.74;100.00;100173.16;5009072;28;21217;-72
2024/02/16 04:45:12;;;;;;;7.60;4.82;;;;;;;9.76;100.00;100175.69;5027451;28;20464;-72
2024/02/16 04:47:40;;;;;;;6.47;4.38;;;;;;;9.77;100.00;100177.41;5039128;28;20408;-72
2024/02/16 04:50:13;;;;;;;11.17;5.43;;;;;;;9.76;100.00;100173.06;5037988;28;20493;-73
2024/02/16 04:52:44;;;;;;;9.57;4.90;;;;;;;9.75;100.00;100168.72;5040163;28;20456;-72
2024/02/16 04:55:13;;;;;;;9.85;4.80;;;;;;;9.73;100.00;100165.28;5031426;28;20060;-72
2024/02/16 04:57:44;;;;;;;9.73;5.20;;;;;;;9.70;100.00;100158.34;5035571;28;20077;-72
2024/02/16 05:00:15;;;;;;;;;;;;;;;9.74;100.00;100172.31;5029693;28;20053;-71
2024/02/16 05:02:44;;;;;;;9.65;4.82;;;;;;;9.73;100.00;100186.44;5032824;28;19929;-71
2024/02/16 05:05:15;;;;;;;9.20;5.10;;;;;;;9.68;100.00;100172.56;5044082;28;20044;-71
2024/02/16 05:07:50;;;;;;;8.73;5.57;;;;;;;9.77;100.00;100178.28;5032473;28;20042;-71
2024/02/16 05:10:20;;;;;;;9.35;5.68;;;;;;;9.77;100.00;100180.06;5035257;28;20056;-70
2024/02/16 05:12:50;;;;;;;8.35;5.43;;;;;;;9.83;100.00;100182.44;5041489;28;20128;-71
2024/02/16 05:15:18;;;;;;;10.82;5.38;;;;;;;9.80;100.00;100172.00;5018697;28;20053;-69
2024/02/16 05:17:49;;;;;;;10.13;5.03;;;;;;;9.89;100.00;100182.16;5039659;28;20052;-72
2024/02/16 05:20:19;;;;;;;7.93;5.72;;;;;;;9.92;100.00;100175.84;5030143;28;20045;-74
2024/02/16 05:22:52;;;;;;;10.50;5.10;;;;;;;9.93;100.00;100180.19;5060477;28;20046;-69
2024/02/16 05:25:21;;;;;;;9.70;5.18;;;;;;;9.90;100.00;100170.66;5075853;28;20135;-70
2024/02/16 05:27:50;;;;;;;8.15;5.95;;;;;;;9.96;100.00;100183.56;5080771;28;20036;-71
2024/02/16 05:30:18;;;;;;;7.25;4.95;;;;;;;9.91;100.00;100174.16;5087347;28;20048;-71
2024/02/16 05:32:47;;;;;;;8.68;5.05;;;;;;;9.95;100.00;100184.50;5091310;28;20071;-71
2024/02/16 05:35:16;;;;;;;9.65;6.13;;;;;;;9.90;100.00;100185.66;5094124;28;20540;-72
2024/02/16 05:37:48;;;;;;;9.35;5.20;;;;;;;9.92;100.00;100181.97;5083355;28;20119;-72
2024/02/16 05:40:24;;;;;;;8.65;5.28;;;;;;;9.91;100.00;100177.66;5078801;28;20576;-73
2024/02/16 05:42:57;;;;;;;8.48;5.55;;;;;;;9.93;100.00;100185.47;5093367;28;20052;-72
2024/02/16 05:45:33;;;;;;;7.55;5.20;;;;;;;9.92;100.00;100179.34;5065687;28;20049;-71
2024/02/16 05:48:02;;;;;;;9.32;5.13;;;;;;;9.94;100.00;100174.84;5078976;28;20094;-72
2024/02/16 05:50:30;;;;;;;11.77;5.78;;;;;;;9.95;100.00;100170.41;5061885;28;20106;-71
2024/02/16 05:52:58;;;;;;;11.25;5.70;;;;;;;9.93;100.00;100172.25;5076628;28;20107;-71
2024/02/16 05:55:28;;;;;;;9.43;5.40;;;;;;;9.85;100.00;100160.28;5064609;28;20071;-71
2024/02/16 05:57:56;;;;;;;8.67;5.10;;;;;;;9.91;100.00;100166.22;5074083;28;21665;-72
2024/02/16 06:00:25;;;;;;;7.50;5.00;;;;;;;9.93;100.00;100173.13;5075449;28;20094;-71
2024/02/16 06:02:54;;;;;;;6.50;4.77;;;;;;;9.95;100.00;100186.28;5061618;28;20075;-71
2024/02/16 06:05:25;;;;;;;7.47;5.15;;;;;;;9.90;100.00;100183.00;5063569;28;20454;-72
2024/02/16 06:07:53;;;;;;;8.15;5.60;;;;;;;9.93;100.00;100194.28;5069163;28;20036;-72
2024/02/16 06:10:26;;;;;;;8.23;5.68;;;;;;;9.93;100.00;100194.28;5077560;28;20044;-73
2024/02/16 06:12:55;;;;;;;10.00;6.10;;;;;;;9.95;100.00;100197.72;5074075;28;20542;-72
2024/02/16 06:15:24;;;;;;;9.45;5.65;;;;;;;9.94;100.00;100195.13;5081969;28;20048;-73
2024/02/16 06:17:53;;;;;;;13.23;5.93;;;;;;;9.94;100.00;100192.50;5074608;28;20207;-71
2024/02/16 06:20:23;;;;;;;8.35;5.80;;;;;;;9.95;100.00;100195.06;5076482;28;20044;-70
2024/02/16 06:22:51;;;;;;;8.27;5.85;;;;;;;9.98;100.00;100192.28;5071565;28;20048;-72
2024/02/16 06:25:21;;;;;;;8.82;5.47;;;;;;;10.02;100.00;100195.66;5075324;28;20055;-71
2024/02/16 06:27:51;;;;;;;9.43;5.65;;;;;;;10.04;100.00;100194.66;5068020;28;20040;-72
2024/02/16 06:30:22;;;;;;;12.20;5.85;;;;;;;9.94;100.00;100176.63;5081810;28;20110;-72
2024/02/16 06:32:51;;;;;;;9.23;6.00;;;;;;;10.13;100.00;100195.97;5068553;28;20036;-71
2024/02/16 06:35:21;;;;;;;8.52;5.53;;;;;;;10.18;100.00;100197.50;5086991;28;20416;-72
2024/02/16 06:37:50;;;;;;;13.20;6.80;;;;;;;10.14;100.00;100180.03;5069697;28;20052;-71
2024/02/16 06:40:19;;;;;;;9.25;5.85;;;;;;;10.26;100.00;100204.22;5071688;28;20118;-71
2024/02/16 06:42:47;;;;;;;9.45;6.15;;;;;;;10.21;100.00;100180.63;5072647;28;20045;-73
2024/02/16 06:45:16;;;;;;;10.50;5.82;;;;;;;10.31;100.00;100204.84;5072926;28;20422;-71
2024/02/16 06:47:46;;;;;;;12.02;6.47;;;;;;;10.32;100.00;100206.56;5068479;28;20548;-72
2024/02/16 06:50:19;;;;;;;9.32;5.57;;;;;;;10.35;100.00;100198.47;5076433;28;20397;-71
2024/02/16 06:52:49;;;;;;;8.90;5.97;;;;;;;10.36;100.00;100195.75;5079842;28;20051;-71
2024/02/16 06:55:20;;;;;;;7.78;5.82;;;;;;;10.44;100.00;100200.66;5053260;28;20116;-71
2024/02/16 06:57:49;;;;;;;9.93;6.03;;;;;;;10.38;100.00;100187.75;5083920;28;20110;-71
2024/02/16 07:00:19;;;;;;;9.57;5.20;;;;;;;10.44;100.00;100182.13;5082052;28;20420;-71
2024/02/16 07:02:51;;;;;;;10.98;6.03;;;;;;;10.57;100.00;100193.81;5076093;28;21054;-72
2024/02/16 07:05:19;;;;;;;12.93;6.80;;;;;;;10.71;100.00;100207.22;5079239;28;20780;-76
2024/02/16 07:07:48;;;;;;;10.45;5.70;;;;;;;10.78;100.00;100211.28;5079710;28;20081;-72
2024/02/16 07:10:18;;;;;;;12.52;6.50;;;;;;;10.84;100.00;100211.00;5076864;28;20052;-71
2024/02/16 07:12:46;;;;;;;8.73;5.70;;;;;;;10.86;100.00;100205.63;5079661;28;20953;-72
2024/02/16 07:15:18;;;;;;;10.95;5.50;;;;;;;10.88;100.00;100214.31;5060046;28;20380;-72
2024/02/16 07:17:48;;;;;;;11.80;5.55;;;;;;;10.92;100.00;100207.94;5074621;28;20047;-71
2024/02/16 07:20:20;;;;;;;7.45;5.80;;;;;;;11.07;100.00;100223.03;5059925;28;20056;-72
2024/02/16 07:22:51;;;;;;;12.25;5.60;;;;;;;11.08;100.00;100232.69;5080812;28;20116;-75
2024/02/16 07:25:19;;;;;;;8.63;5.50;;;;;;;11.05;100.00;100232.84;5078817;28;20036;-73
2024/02/16 07:27:48;;;;;;;10.38;5.82;;;;;;;11.08;100.00;100237.16;5080547;28;20120;-73
2024/02/16 07:30:16;;;;;;;16.67;6.47;;;;;;;11.08;100.00;100240.66;5081450;28;20064;-72
2024/02/16 07:32:56;;;;;;;14.45;5.90;;;;;;;11.09;100.00;100246.81;5100203;28;20036;-73
2024/02/16 07:35:25;;;;;;;9.43;6.20;;;;;;;11.02;100.00;100237.47;5069038;28;20055;-72
2024/02/16 07:37:54;;;;;;;14.60;6.35;;;;;;;11.13;100.00;100251.03;5062392;28;20120;-71
2024/02/16 07:40:23;;;;;;;10.13;6.50;;;;;;;11.14;100.00;100255.41;5068623;28;20044;-71
2024/02/16 07:42:51;;;;;;;12.68;6.35;;;;;;;11.16;100.00;100253.53;5083496;28;20036;-72
2024/02/16 07:45:21;;;;;;;12.43;6.25;;;;;;;11.16;100.00;100253.53;5084179;28;20041;-70
2024/02/16 07:47:52;;;;;;;10.45;6.40;;;;;;;11.17;100.00;100261.41;5076621;28;20088;-72
2024/02/16 07:50:20;;;;;;;10.88;6.10;;;;;;;11.21;100.00;100251.47;5076339;28;20078;-71
2024/02/16 07:52:55;;;;;;;12.57;6.18;;;;;;;11.14;100.00;100240.34;5077377;28;20139;-74
2024/02/16 07:55:24;;;;;;;12.45;6.35;;;;;;;11.27;100.00;100261.78;5079776;28;20196;-73
2024/02/16 07:57:52;;;;;;;12.35;6.38;;;;;;;11.30;100.00;100266.91;5074399;28;20032;-72
2024/02/16 08:00:21;;;;;;;10.38;6.65;;;;;;;11.35;100.00;100274.59;5060179;28;20171;-72
2024/02/16 08:02:50;;;;;;;14.48;7.03;;;;;;;11.41;100.00;100269.84;5066873;28;20036;-72
2024/02/16 08:05:24;;;;;;;17.20;7.40;;;;;;;11.36;100.00;100261.28;5079283;28;20111;-73
2024/02/16 08:07:55;;;;;;;14.95;6.78;;;;;;;11.38;100.00;100267.34;5077128;28;20413;-71
2024/02/16 08:10:27;;;;;;;14.52;7.38;;;;;;;11.43;100.00;100267.13;5082799;28;20072;-71
2024/02/16 08:12:57;;;;;;;11.30;7.18;;;;;;;11.47;100.00;100261.59;5078906;28;20041;-72
2024/02/16 08:15:27;;;;;;;13.48;7.28;;;;;;;11.57;100.00;100254.84;5080976;28;20169;-72
2024/02/16 08:17:57;;;;;;;11.63;6.90;;;;;;;11.68;100.00;100256.06;5067206;28;20048;-69
2024/02/16 08:20:29;;;;;;;10.10;7.03;;;;;;;11.59;100.00;100250.34;5072906;28;20124;-72
2024/02/16 08:23:00;;;;;;;10.82;6.28;;;;;;;11.69;100.00;100263.09;5080645;28;20416;-71
2024/02/16 08:25:30;;;;;;;13.68;7.50;;;;;;;11.78;100.00;100273.25;5080798;28;20048;-71
2024/02/16 08:27:58;;;;;;;11.77;7.57;;;;;;;11.78;100.00;100267.94;5075040;28;20094;-71
2024/02/16 08:30:26;;;;;;;13.70;7.30;;;;;;;11.78;100.00;100275.91;5077841;28;20068;-71
2024/02/16 08:32:54;;;;;;;13.40;7.82;;;;;;;11.80;100.00;100276.69;5078486;28;20051;-73
2024/02/16 08:35:29;;;;;;;16.02;8.88;;;;;;;11.76;100.00;100272.47;5060099;28;20051;-71
2024/02/16 08:37:59;;;;;;;19.98;8.60;;;;;;;11.77;100.00;100287.47;5069261;28;20469;-72
2024/02/16 08:40:28;;;;;;;14.48;8.23;;;;;;;11.76;100.00;100272.47;5079764;28;20119;-71
2024/02/16 08:42:57;;;;;;;16.65;8.43;;;;;;;11.83;100.00;100260.56;5069535;28;20036;-72
2024/02/16 08:45:29;;;;;;;15.25;8.90;;;;;;;11.93;100.00;100286.56;5073966;28;20040;-72
2024/02/16 08:47:57;;;;;;;13.85;8.48;;;;;;;11.88;100.00;100280.63;5076245;28;20114;-73
2024/02/16 08:50:28;;;;;;;16.88;9.43;;;;;;;11.85;100.00;100282.56;5072440;28;20071;-71
2024/02/16 08:52:57;;;;;;;20.73;9.82;;;;;;;11.90;100.00;100289.38;5075353;28;20076;-71
2024/02/16 08:55:28;;;;;;;16.48;9.20;;;;;;;11.95;100.00;100286.47;5061130;28;20460;-73
2024/02/16 08:57:58;;;;;;;16.33;9.02;;;;;;;11.98;100.00;100290.72;5047458;28;20063;-72
2024/02/16 09:00:28;;;;;;;16.50;9.40;;;;;;;11.99;100.00;100288.00;5070958;28;21151;-71
2024/02/16 09:02:57;;;;;;;14.60;9.05;;;;;;;11.96;100.00;100282.88;5058605;28;20048;-72
2024/02/16 09:05:26;;;;;;;20.35;9.95;;;;;;;12.04;100.00;100296.56;5076353;28;20056;-72
2024/02/16 09:07:56;;;;;;;16.38;9.13;;;;;;;12.03;100.00;100300.16;5062328;28;20041;-72
2024/02/16 09:10:25;;;;;;;20.65;9.30;;;;;;;12.01;100.00;100299.38;5078534;28;20036;-73
2024/02/16 09:12:55;;;;;;;17.05;9.23;;;;;;;12.02;100.00;100293.13;5065031;28;20112;-73
2024/02/16 09:15:23;;;;;;;18.80;9.85;;;;;;;12.01;100.00;100303.84;5077356;28;20067;-72
2024/02/16 09:17:53;;;;;;;19.63;10.32;;;;;;;11.97;100.00;100299.63;5029731;28;20056;-72
2024/02/16 09:20:24;;;;;;;15.50;8.88;;;;;;;11.97;100.00;100300.47;5074967;28;20135;-73
2024/02/16 09:22:55;;;;;;;14.35;9.10;;;;;;;12.10;100.00;100312.19;5060269;28;20054;-72
2024/02/16 09:25:26;;;;;;;14.30;9.38;;;;;;;12.15;100.00;100314.56;5080157;28;20117;-72
2024/02/16 09:30:56;;;;;;;13.57;9.50;;;;;;;12.05;100.00;100314.22;5089244;28;20074;-75
2024/02/16 09:33:26;;;;;;;13.25;9.27;;;;;;;11.98;100.00;100312.81;5083711;28;20123;-71
2024/02/16 09:35:55;;;;;;;15.23;9.38;;;;;;;11.99;100.00;100325.16;5089635;28;20033;-72
2024/02/16 09:38:24;;;;;;;18.15;9.95;;;;;;;11.98;100.00;100331.41;5081246;28;20048;-72
2024/02/16 09:40:55;;;;;;;15.10;9.52;;;;;;;12.03;100.00;100332.00;5084045;28;20028;-71
2024/02/16 09:43:29;;;;;;;17.02;9.82;;;;;;;12.03;100.00;100321.41;5085187;28;20040;-72
2024/02/16 09:45:59;;;;;;;15.75;9.95;;;;;;;12.18;100.00;100325.88;5074263;28;20051;-72
2024/02/16 09:48:32;;;;;;;16.95;9.77;;;;;;;12.25;100.00;100335.22;5048492;28;20039;-71
2024/02/16 09:51:04;;;;;;;13.75;9.38;;;;;;;12.37;100.00;100335.47;5066193;28;20048;-72
2024/02/16 09:53:36;;;;;;;13.60;9.45;;;;;;;12.40;100.00;100324.69;5074830;28;20048;-72
2024/02/16 09:56:09;;;;;;;13.38;9.50;;;;;;;12.55;100.00;100313.22;5089446;28;20107;-72
2024/02/16 09:58:43;;;;;;;14.55;9.18;;;;;;;12.82;100.00;100337.34;5042708;28;20155;-72
2024/02/16 10:01:20;;;;;;;11.07;9.05;;;;;;;12.98;100.00;100335.53;5078372;28;20053;-71
2024/02/16 10:03:51;;;;;;;14.93;9.52;;;;;;;13.20;100.00;100329.88;5071213;28;20114;-72
2024/02/16 10:06:22;;;;;;;14.48;9.35;;;;;;;13.28;100.00;100320.47;5074394;28;20055;-72
2024/02/16 10:08:53;;;;;;;12.48;9.13;;;;;;;13.52;100.00;100336.78;5054337;28;20052;-71
2024/02/16 10:11:24;;;;;;;14.13;9.00;;;;;;;13.79;100.00;100330.75;5061246;28;20074;-72
2024/02/16 10:14:03;;;;;;;12.55;9.40;;;;;;;13.85;100.00;100333.84;5062023;28;21069;-72
2024/02/16 10:16:34;;;;;;;15.07;9.38;;;;;;;13.87;100.00;100339.09;5062309;28;20412;-72
2024/02/16 10:19:06;;;;;;;17.95;9.55;;;;;;;13.85;100.00;100335.69;5048276;28;20056;-71
2024/02/16 10:21:34;;;;;;;13.93;9.00;;;;;;;13.84;100.00;100352.63;5061872;28;20045;-73
2024/02/16 10:24:08;;;;;;;16.63;9.20;;;;;;;13.89;100.00;100350.50;5069821;28;20047;-71
2024/02/16 10:26:38;;;;;;;13.85;8.23;;;;;;;13.87;100.00;100350.59;5072984;28;20041;-72
2024/02/16 10:29:13;;;;;;;13.05;8.52;;;;;;;13.88;100.00;100356.78;5069116;28;20055;-71
2024/02/16 10:31:43;;;;;;;14.52;8.77;;;;;;;13.98;100.00;100355.28;5070091;28;20048;-71
2024/02/16 10:34:13;;;;;;;12.88;9.13;;;;;;;13.95;100.00;100352.81;5071429;28;20071;-72
2024/02/16 10:36:51;;;;;;;12.35;8.57;;;;;;;14.02;100.00;100362.97;5088185;28;20067;-72
2024/02/16 10:39:22;;;;;;;9.35;7.38;;;;;;;14.10;100.00;100367.84;5073976;28;20091;-73
2024/02/16 10:41:59;;;;;;;12.27;7.15;;;;;;;14.22;100.00;100371.53;5092070;28;20051;-74
2024/02/16 10:44:31;;;;;;;10.90;7.32;;;;;;;14.27;100.00;100364.13;5081889;28;20044;-72
2024/02/16 10:47:00;;;;;;;10.82;7.00;;;;;;;14.33;100.00;100369.91;5078697;28;20044;-73
2024/02/16 10:49:29;;;;;;;12.00;6.72;;;;;;;14.41;100.00;100366.81;5077769;28;20109;-72
2024/02/16 10:51:59;;;;;;;10.45;7.20;;;;;;;14.38;100.00;100366.97;5052971;28;20260;-71
2024/02/16 10:54:33;;;;;;;12.50;6.57;;;;;;;14.22;100.00;100360.88;5076974;28;20040;-71
2024/02/16 10:57:08;;;;;;;11.15;6.68;;;;;;;14.29;100.00;100364.88;5076947;28;20074;-71
2024/02/16 10:59:43;;;;;;;11.32;6.85;;;;;;;14.38;100.00;100357.16;5079403;28;20048;-73
2024/02/16 11:02:15;;;;;;;11.38;6.50;;;;;;;14.49;100.00;100359.16;5077616;28;20096;-73
2024/02/16 11:04:49;;;;;;;11.38;6.95;;;;;;;14.58;100.00;100365.72;5064786;28;20148;-73
2024/02/16 11:07:21;;;;;;;10.15;5.97;;;;;;;14.60;100.00;100366.50;5076143;28;20041;-75
2024/02/16 11:09:51;;;;;;;9.30;5.80;;;;;;;14.60;100.00;100371.81;5080887;28;20132;-76
2024/02/16 11:12:20;;;;;;;12.02;6.50;;;;;;;14.59;100.00;100370.97;5079104;28;20040;-76
2024/02/16 11:14:52;;;;;;;10.50;6.95;;;;;;;14.64;100.00;100365.31;5076538;28;20114;-71
2024/02/16 11:17:23;;;;;;;12.85;6.30;;;;;;;14.69;100.00;100365.88;5088577;28;20129;-72
2024/02/16 11:19:51;;;;;;;10.90;6.65;;;;;;;14.78;100.00;100354.66;5084803;28;20064;-72
2024/02/16 11:22:21;;;;;;;12.45;6.68;;;;;;;14.86;100.00;100359.47;5086169;28;20555;-73
2024/02/16 11:24:53;;;;;;;10.05;6.60;;;;;;;14.74;100.00;100361.13;5082006;28;20040;-74
2024/02/16 11:27:34;;;;;;;11.73;6.28;;;;;;;14.48;100.00;100351.28;5081687;28;20040;-74
2024/02/16 11:30:06;;;;;;;10.30;6.38;;;;;;;14.37;100.00;100355.44;5082668;28;20078;-72
2024/02/16 11:32:35;;;;;;;10.55;5.95;;;;;;;14.42;100.00;100359.66;5081222;28;20048;-71